sensor_id;sensor_type;location;lat;lon;timestamp;P1;durP1;ratioP1;P2;durP2;ratioP2
23404;SDS011;11875;49.356;2.718;2022-08-19T00:00:00;18.00;;;12.82;;
23404;SDS011;11875;49.356;2.718;2022-08-19T00:02:27;14.63;;;12.13;;
23404;SDS011;11875;49.356;2.718;2022-08-19T00:04:53;16.05;;;13.27;;
23404;SDS011;11875;49.356;2.718;2022-08-19T00:07:19;14.70;;;12.40;;
23404;SDS011;11875;49.356;2.718;2022-08-19T00:09:45;14.82;;;11.93;;
23404;SDS011;11875;49.356;2.718;2022-08-19T00:12:10;16.25;;;12.85;;
23404;SDS011;11875;49.356;2.718;2022-08-19T00:14:37;13.75;;;12.32;;
23404;SDS011;11875;49.356;2.718;2022-08-19T00:17:03;14.73;;;12.77;;
23404;SDS011;11875;49.356;2.718;2022-08-19T00:19:31;21.95;;;12.60;;
23404;SDS011;11875;49.356;2.718;2022-08-19T00:21:57;15.18;;;13.57;;
23404;SDS011;11875;49.356;2.718;2022-08-19T00:24:23;16.40;;;12.98;;
23404;SDS011;11875;49.356;2.718;2022-08-19T00:26:50;17.88;;;14.55;;
23404;SDS011;11875;49.356;2.718;2022-08-19T00:29:17;19.90;;;13.90;;
23404;SDS011;11875;49.356;2.718;2022-08-19T00:31:46;17.15;;;13.52;;
23404;SDS011;11875;49.356;2.718;2022-08-19T00:34:13;18.38;;;13.50;;
23404;SDS011;11875;49.356;2.718;2022-08-19T00:36:41;20.02;;;14.35;;
23404;SDS011;11875;49.356;2.718;2022-08-19T00:39:08;17.35;;;14.82;;
23404;SDS011;11875;49.356;2.718;2022-08-19T00:41:34;16.98;;;14.52;;
23404;SDS011;11875;49.356;2.718;2022-08-19T00:46:32;23.40;;;16.50;;
23404;SDS011;11875;49.356;2.718;2022-08-19T00:49:00;18.67;;;15.32;;
23404;SDS011;11875;49.356;2.718;2022-08-19T00:51:30;17.50;;;14.82;;
23404;SDS011;11875;49.356;2.718;2022-08-19T00:53:57;18.88;;;14.60;;
23404;SDS011;11875;49.356;2.718;2022-08-19T00:56:24;17.23;;;15.07;;
23404;SDS011;11875;49.356;2.718;2022-08-19T00:58:52;18.55;;;15.63;;
23404;SDS011;11875;49.356;2.718;2022-08-19T01:01:21;19.88;;;15.88;;
23404;SDS011;11875;49.356;2.718;2022-08-19T01:03:46;17.67;;;14.60;;
23404;SDS011;11875;49.356;2.718;2022-08-19T01:06:12;17.65;;;14.93;;
23404;SDS011;11875;49.356;2.718;2022-08-19T01:08:38;18.17;;;13.95;;
23404;SDS011;11875;49.356;2.718;2022-08-19T01:11:03;18.08;;;13.88;;
23404;SDS011;11875;49.356;2.718;2022-08-19T01:13:30;19.52;;;14.90;;
23404;SDS011;11875;49.356;2.718;2022-08-19T01:16:07;19.48;;;14.05;;
23404;SDS011;11875;49.356;2.718;2022-08-19T01:18:39;18.30;;;14.25;;
23404;SDS011;11875;49.356;2.718;2022-08-19T01:23:47;17.40;;;13.45;;
23404;SDS011;11875;49.356;2.718;2022-08-19T01:26:21;17.98;;;13.70;;
23404;SDS011;11875;49.356;2.718;2022-08-19T01:28:49;16.17;;;13.18;;
23404;SDS011;11875;49.356;2.718;2022-08-19T01:31:18;17.30;;;14.32;;
23404;SDS011;11875;49.356;2.718;2022-08-19T01:33:47;15.73;;;13.73;;
23404;SDS011;11875;49.356;2.718;2022-08-19T01:36:16;18.25;;;15.25;;
23404;SDS011;11875;49.356;2.718;2022-08-19T01:38:51;18.52;;;14.50;;
23404;SDS011;11875;49.356;2.718;2022-08-19T01:41:18;18.88;;;15.55;;
23404;SDS011;11875;49.356;2.718;2022-08-19T01:43:44;16.88;;;13.88;;
23404;SDS011;11875;49.356;2.718;2022-08-19T01:46:10;17.98;;;14.27;;
23404;SDS011;11875;49.356;2.718;2022-08-19T01:48:37;18.15;;;13.95;;
23404;SDS011;11875;49.356;2.718;2022-08-19T01:51:05;16.05;;;13.65;;
23404;SDS011;11875;49.356;2.718;2022-08-19T01:53:31;17.00;;;13.63;;
23404;SDS011;11875;49.356;2.718;2022-08-19T01:55:58;19.27;;;14.73;;
23404;SDS011;11875;49.356;2.718;2022-08-19T01:58:24;19.45;;;15.70;;
23404;SDS011;11875;49.356;2.718;2022-08-19T02:00:55;18.35;;;14.88;;
23404;SDS011;11875;49.356;2.718;2022-08-19T02:03:21;20.60;;;14.45;;
23404;SDS011;11875;49.356;2.718;2022-08-19T02:05:47;18.85;;;15.10;;
23404;SDS011;11875;49.356;2.718;2022-08-19T02:08:18;18.83;;;14.63;;
23404;SDS011;11875;49.356;2.718;2022-08-19T02:10:44;20.55;;;15.75;;
23404;SDS011;11875;49.356;2.718;2022-08-19T02:13:10;19.73;;;15.68;;
23404;SDS011;11875;49.356;2.718;2022-08-19T02:15:37;19.60;;;15.50;;
23404;SDS011;11875;49.356;2.718;2022-08-19T02:18:03;20.42;;;15.80;;
23404;SDS011;11875;49.356;2.718;2022-08-19T02:20:28;19.40;;;16.08;;
23404;SDS011;11875;49.356;2.718;2022-08-19T02:22:54;22.30;;;15.63;;
23404;SDS011;11875;49.356;2.718;2022-08-19T02:25:20;20.90;;;15.73;;
23404;SDS011;11875;49.356;2.718;2022-08-19T02:27:45;19.25;;;15.23;;
23404;SDS011;11875;49.356;2.718;2022-08-19T02:30:14;20.73;;;15.50;;
23404;SDS011;11875;49.356;2.718;2022-08-19T02:32:41;17.67;;;14.23;;
23404;SDS011;11875;49.356;2.718;2022-08-19T02:35:08;21.38;;;14.50;;
23404;SDS011;11875;49.356;2.718;2022-08-19T02:37:34;18.20;;;14.43;;
23404;SDS011;11875;49.356;2.718;2022-08-19T02:40:18;18.58;;;14.75;;
23404;SDS011;11875;49.356;2.718;2022-08-19T02:42:44;17.00;;;12.43;;
23404;SDS011;11875;49.356;2.718;2022-08-19T02:45:11;18.35;;;14.45;;
23404;SDS011;11875;49.356;2.718;2022-08-19T02:47:38;18.73;;;13.38;;
23404;SDS011;11875;49.356;2.718;2022-08-19T02:50:04;19.98;;;13.05;;
23404;SDS011;11875;49.356;2.718;2022-08-19T02:52:31;18.60;;;14.30;;
23404;SDS011;11875;49.356;2.718;2022-08-19T02:54:57;17.42;;;13.63;;
23404;SDS011;11875;49.356;2.718;2022-08-19T02:57:23;16.52;;;13.30;;
23404;SDS011;11875;49.356;2.718;2022-08-19T02:59:49;22.83;;;14.68;;
23404;SDS011;11875;49.356;2.718;2022-08-19T03:02:15;15.57;;;12.85;;
23404;SDS011;11875;49.356;2.718;2022-08-19T03:04:41;17.10;;;13.07;;
23404;SDS011;11875;49.356;2.718;2022-08-19T03:07:07;17.02;;;12.95;;
23404;SDS011;11875;49.356;2.718;2022-08-19T03:09:35;16.60;;;12.65;;
23404;SDS011;11875;49.356;2.718;2022-08-19T03:12:03;15.13;;;12.98;;
23404;SDS011;11875;49.356;2.718;2022-08-19T03:14:32;14.32;;;12.05;;
23404;SDS011;11875;49.356;2.718;2022-08-19T03:16:58;14.93;;;12.55;;
23404;SDS011;11875;49.356;2.718;2022-08-19T03:19:24;16.40;;;12.48;;
23404;SDS011;11875;49.356;2.718;2022-08-19T03:21:50;17.67;;;12.63;;
23404;SDS011;11875;49.356;2.718;2022-08-19T03:24:16;17.00;;;12.45;;
23404;SDS011;11875;49.356;2.718;2022-08-19T03:26:48;14.05;;;12.40;;
23404;SDS011;11875;49.356;2.718;2022-08-19T03:29:16;16.65;;;13.20;;
23404;SDS011;11875;49.356;2.718;2022-08-19T03:31:42;17.42;;;12.77;;
23404;SDS011;11875;49.356;2.718;2022-08-19T03:34:10;17.63;;;13.13;;
23404;SDS011;11875;49.356;2.718;2022-08-19T03:36:37;15.82;;;12.50;;
23404;SDS011;11875;49.356;2.718;2022-08-19T03:39:03;17.75;;;12.82;;
23404;SDS011;11875;49.356;2.718;2022-08-19T03:41:30;17.70;;;14.63;;
23404;SDS011;11875;49.356;2.718;2022-08-19T03:43:57;19.13;;;14.60;;
23404;SDS011;11875;49.356;2.718;2022-08-19T03:46:24;17.55;;;15.10;;
23404;SDS011;11875;49.356;2.718;2022-08-19T03:48:53;17.73;;;14.75;;
23404;SDS011;11875;49.356;2.718;2022-08-19T03:51:21;16.13;;;14.30;;
23404;SDS011;11875;49.356;2.718;2022-08-19T03:53:59;19.73;;;13.93;;
23404;SDS011;11875;49.356;2.718;2022-08-19T03:56:27;17.58;;;13.73;;
23404;SDS011;11875;49.356;2.718;2022-08-19T03:58:53;18.17;;;14.05;;
23404;SDS011;11875;49.356;2.718;2022-08-19T04:01:22;16.90;;;13.93;;
23404;SDS011;11875;49.356;2.718;2022-08-19T04:03:51;17.20;;;13.75;;
23404;SDS011;11875;49.356;2.718;2022-08-19T04:06:22;17.35;;;14.10;;
23404;SDS011;11875;49.356;2.718;2022-08-19T04:08:50;19.58;;;14.32;;
23404;SDS011;11875;49.356;2.718;2022-08-19T04:11:19;20.38;;;14.68;;
23404;SDS011;11875;49.356;2.718;2022-08-19T04:13:47;15.77;;;13.70;;
23404;SDS011;11875;49.356;2.718;2022-08-19T04:16:13;23.15;;;13.75;;
23404;SDS011;11875;49.356;2.718;2022-08-19T04:18:39;17.58;;;14.48;;
23404;SDS011;11875;49.356;2.718;2022-08-19T04:21:06;16.52;;;14.18;;
23404;SDS011;11875;49.356;2.718;2022-08-19T04:23:33;18.00;;;14.50;;
23404;SDS011;11875;49.356;2.718;2022-08-19T04:26:01;17.67;;;14.20;;
23404;SDS011;11875;49.356;2.718;2022-08-19T04:28:26;18.50;;;14.20;;
23404;SDS011;11875;49.356;2.718;2022-08-19T04:30:53;17.45;;;14.27;;
23404;SDS011;11875;49.356;2.718;2022-08-19T04:33:20;18.13;;;13.65;;
23404;SDS011;11875;49.356;2.718;2022-08-19T04:35:49;14.73;;;12.70;;
23404;SDS011;11875;49.356;2.718;2022-08-19T04:38:16;17.38;;;14.02;;
23404;SDS011;11875;49.356;2.718;2022-08-19T04:40:49;18.50;;;13.32;;
23404;SDS011;11875;49.356;2.718;2022-08-19T04:43:34;16.33;;;12.85;;
23404;SDS011;11875;49.356;2.718;2022-08-19T04:46:06;23.38;;;13.07;;
23404;SDS011;11875;49.356;2.718;2022-08-19T04:48:33;18.23;;;12.55;;
23404;SDS011;11875;49.356;2.718;2022-08-19T04:50:59;18.23;;;12.60;;
23404;SDS011;11875;49.356;2.718;2022-08-19T04:53:25;17.08;;;12.90;;
23404;SDS011;11875;49.356;2.718;2022-08-19T04:55:53;18.80;;;12.85;;
23404;SDS011;11875;49.356;2.718;2022-08-19T04:58:23;14.68;;;12.10;;
23404;SDS011;11875;49.356;2.718;2022-08-19T05:00:49;17.25;;;12.23;;
23404;SDS011;11875;49.356;2.718;2022-08-19T05:03:15;25.20;;;12.95;;
23404;SDS011;11875;49.356;2.718;2022-08-19T05:05:42;16.38;;;12.50;;
23404;SDS011;11875;49.356;2.718;2022-08-19T05:08:09;17.15;;;12.63;;
23404;SDS011;11875;49.356;2.718;2022-08-19T05:10:35;19.27;;;12.75;;
23404;SDS011;11875;49.356;2.718;2022-08-19T05:13:04;19.60;;;13.07;;
23404;SDS011;11875;49.356;2.718;2022-08-19T05:15:30;15.63;;;12.32;;
23404;SDS011;11875;49.356;2.718;2022-08-19T05:17:56;14.63;;;11.20;;
23404;SDS011;11875;49.356;2.718;2022-08-19T05:20:40;16.85;;;11.88;;
23404;SDS011;11875;49.356;2.718;2022-08-19T05:23:25;16.00;;;11.63;;
23404;SDS011;11875;49.356;2.718;2022-08-19T05:25:51;16.08;;;11.43;;
23404;SDS011;11875;49.356;2.718;2022-08-19T05:28:18;19.42;;;12.40;;
23404;SDS011;11875;49.356;2.718;2022-08-19T05:30:44;19.42;;;11.73;;
23404;SDS011;11875;49.356;2.718;2022-08-19T05:33:10;18.77;;;11.63;;
23404;SDS011;11875;49.356;2.718;2022-08-19T05:35:37;16.50;;;11.77;;
23404;SDS011;11875;49.356;2.718;2022-08-19T05:38:04;20.98;;;11.35;;
23404;SDS011;11875;49.356;2.718;2022-08-19T05:40:33;15.43;;;11.80;;
23404;SDS011;11875;49.356;2.718;2022-08-19T05:43:01;16.88;;;11.63;;
23404;SDS011;11875;49.356;2.718;2022-08-19T05:45:27;16.38;;;11.57;;
23404;SDS011;11875;49.356;2.718;2022-08-19T05:47:52;16.95;;;12.20;;
23404;SDS011;11875;49.356;2.718;2022-08-19T05:50:19;18.17;;;12.43;;
23404;SDS011;11875;49.356;2.718;2022-08-19T05:52:44;16.85;;;12.80;;
23404;SDS011;11875;49.356;2.718;2022-08-19T05:55:10;19.70;;;12.48;;
23404;SDS011;11875;49.356;2.718;2022-08-19T05:57:36;19.60;;;12.55;;
23404;SDS011;11875;49.356;2.718;2022-08-19T06:00:03;17.77;;;11.85;;
23404;SDS011;11875;49.356;2.718;2022-08-19T06:02:35;14.48;;;11.80;;
23404;SDS011;11875;49.356;2.718;2022-08-19T06:05:02;17.70;;;11.98;;
23404;SDS011;11875;49.356;2.718;2022-08-19T06:07:28;14.27;;;12.23;;
23404;SDS011;11875;49.356;2.718;2022-08-19T06:09:54;17.42;;;11.80;;
23404;SDS011;11875;49.356;2.718;2022-08-19T06:12:20;16.58;;;11.15;;
23404;SDS011;11875;49.356;2.718;2022-08-19T06:14:55;15.48;;;11.40;;
23404;SDS011;11875;49.356;2.718;2022-08-19T06:17:21;12.55;;;10.65;;
23404;SDS011;11875;49.356;2.718;2022-08-19T06:19:49;20.17;;;11.38;;
23404;SDS011;11875;49.356;2.718;2022-08-19T06:22:15;15.90;;;11.63;;
23404;SDS011;11875;49.356;2.718;2022-08-19T06:24:41;13.52;;;10.80;;
23404;SDS011;11875;49.356;2.718;2022-08-19T06:27:06;14.80;;;10.77;;
23404;SDS011;11875;49.356;2.718;2022-08-19T06:29:32;15.60;;;11.13;;
23404;SDS011;11875;49.356;2.718;2022-08-19T06:31:59;21.67;;;19.30;;
23404;SDS011;11875;49.356;2.718;2022-08-19T06:34:28;14.50;;;11.20;;
23404;SDS011;11875;49.356;2.718;2022-08-19T06:36:56;15.20;;;11.13;;
23404;SDS011;11875;49.356;2.718;2022-08-19T06:39:26;16.77;;;10.63;;
23404;SDS011;11875;49.356;2.718;2022-08-19T06:41:55;12.80;;;10.18;;
23404;SDS011;11875;49.356;2.718;2022-08-19T06:44:26;13.23;;;9.63;;
23404;SDS011;11875;49.356;2.718;2022-08-19T06:46:53;16.73;;;10.43;;
23404;SDS011;11875;49.356;2.718;2022-08-19T06:49:20;17.30;;;9.55;;
23404;SDS011;11875;49.356;2.718;2022-08-19T06:51:47;12.15;;;8.70;;
23404;SDS011;11875;49.356;2.718;2022-08-19T06:54:14;14.48;;;8.70;;
23404;SDS011;11875;49.356;2.718;2022-08-19T06:56:42;15.95;;;9.63;;
23404;SDS011;11875;49.356;2.718;2022-08-19T06:59:12;15.90;;;9.82;;
23404;SDS011;11875;49.356;2.718;2022-08-19T07:01:41;18.92;;;10.63;;
23404;SDS011;11875;49.356;2.718;2022-08-19T07:04:10;19.08;;;10.90;;
23404;SDS011;11875;49.356;2.718;2022-08-19T07:06:36;17.05;;;10.70;;
23404;SDS011;11875;49.356;2.718;2022-08-19T07:09:03;15.50;;;10.18;;
23404;SDS011;11875;49.356;2.718;2022-08-19T07:11:30;19.73;;;10.07;;
23404;SDS011;11875;49.356;2.718;2022-08-19T07:13:57;14.38;;;10.43;;
23404;SDS011;11875;49.356;2.718;2022-08-19T07:16:23;16.45;;;9.73;;
23404;SDS011;11875;49.356;2.718;2022-08-19T07:18:49;17.75;;;11.07;;
23404;SDS011;11875;49.356;2.718;2022-08-19T07:21:17;20.70;;;10.50;;
23404;SDS011;11875;49.356;2.718;2022-08-19T07:23:47;16.75;;;10.40;;
23404;SDS011;11875;49.356;2.718;2022-08-19T07:26:15;15.48;;;9.63;;
23404;SDS011;11875;49.356;2.718;2022-08-19T07:28:47;17.77;;;9.63;;
23404;SDS011;11875;49.356;2.718;2022-08-19T07:31:15;13.90;;;8.77;;
23404;SDS011;11875;49.356;2.718;2022-08-19T07:33:46;12.77;;;7.97;;
23404;SDS011;11875;49.356;2.718;2022-08-19T07:36:13;14.15;;;9.10;;
23404;SDS011;11875;49.356;2.718;2022-08-19T07:38:42;16.83;;;9.80;;
23404;SDS011;11875;49.356;2.718;2022-08-19T07:41:10;21.40;;;9.48;;
23404;SDS011;11875;49.356;2.718;2022-08-19T07:43:38;11.20;;;8.30;;
23404;SDS011;11875;49.356;2.718;2022-08-19T07:46:04;16.85;;;8.57;;
23404;SDS011;11875;49.356;2.718;2022-08-19T07:48:31;10.77;;;7.45;;
23404;SDS011;11875;49.356;2.718;2022-08-19T07:50:58;9.73;;;7.13;;
23404;SDS011;11875;49.356;2.718;2022-08-19T07:53:27;13.65;;;7.28;;
23404;SDS011;11875;49.356;2.718;2022-08-19T07:55:54;11.98;;;7.55;;
23404;SDS011;11875;49.356;2.718;2022-08-19T07:58:21;16.73;;;7.25;;
23404;SDS011;11875;49.356;2.718;2022-08-19T08:00:48;11.88;;;6.72;;
23404;SDS011;11875;49.356;2.718;2022-08-19T08:03:16;10.00;;;7.03;;
23404;SDS011;11875;49.356;2.718;2022-08-19T08:05:43;11.90;;;6.55;;
23404;SDS011;11875;49.356;2.718;2022-08-19T08:08:27;9.73;;;6.72;;
23404;SDS011;11875;49.356;2.718;2022-08-19T08:10:56;9.93;;;6.57;;
23404;SDS011;11875;49.356;2.718;2022-08-19T08:13:22;9.07;;;6.38;;
23404;SDS011;11875;49.356;2.718;2022-08-19T08:15:49;7.43;;;5.57;;
23404;SDS011;11875;49.356;2.718;2022-08-19T08:18:14;7.45;;;5.45;;
23404;SDS011;11875;49.356;2.718;2022-08-19T08:20:40;7.53;;;5.50;;
23404;SDS011;11875;49.356;2.718;2022-08-19T08:23:06;8.90;;;5.68;;
23404;SDS011;11875;49.356;2.718;2022-08-19T08:25:47;8.23;;;4.97;;
23404;SDS011;11875;49.356;2.718;2022-08-19T08:28:13;7.10;;;4.97;;
23404;SDS011;11875;49.356;2.718;2022-08-19T08:30:40;10.25;;;5.50;;
23404;SDS011;11875;49.356;2.718;2022-08-19T08:33:08;6.20;;;5.00;;
23404;SDS011;11875;49.356;2.718;2022-08-19T08:35:34;6.85;;;4.75;;
23404;SDS011;11875;49.356;2.718;2022-08-19T08:38:00;6.93;;;4.78;;
23404;SDS011;11875;49.356;2.718;2022-08-19T08:40:39;15.30;;;12.48;;
23404;SDS011;11875;49.356;2.718;2022-08-19T08:43:20;7.60;;;5.00;;
23404;SDS011;11875;49.356;2.718;2022-08-19T08:46:06;6.85;;;4.75;;
23404;SDS011;11875;49.356;2.718;2022-08-19T08:48:39;6.22;;;4.57;;
23404;SDS011;11875;49.356;2.718;2022-08-19T08:51:15;6.22;;;4.50;;
23404;SDS011;11875;49.356;2.718;2022-08-19T08:53:49;8.15;;;4.10;;
23404;SDS011;11875;49.356;2.718;2022-08-19T08:56:16;6.55;;;4.20;;
23404;SDS011;11875;49.356;2.718;2022-08-19T09:01:12;7.28;;;4.20;;
23404;SDS011;11875;49.356;2.718;2022-08-19T09:03:39;6.47;;;3.53;;
23404;SDS011;11875;49.356;2.718;2022-08-19T09:06:07;5.35;;;4.10;;
23404;SDS011;11875;49.356;2.718;2022-08-19T09:11:40;5.85;;;2.97;;
23404;SDS011;11875;49.356;2.718;2022-08-19T09:17:13;6.05;;;3.33;;
23404;SDS011;11875;49.356;2.718;2022-08-19T09:19:49;3.60;;;3.22;;
23404;SDS011;11875;49.356;2.718;2022-08-19T09:22:18;4.78;;;3.35;;
23404;SDS011;11875;49.356;2.718;2022-08-19T09:24:46;13.55;;;3.25;;
23404;SDS011;11875;49.356;2.718;2022-08-19T09:27:17;4.50;;;2.60;;
23404;SDS011;11875;49.356;2.718;2022-08-19T09:29:43;3.38;;;2.60;;
23404;SDS011;11875;49.356;2.718;2022-08-19T09:32:09;3.45;;;3.00;;
23404;SDS011;11875;49.356;2.718;2022-08-19T09:34:35;3.90;;;3.10;;
23404;SDS011;11875;49.356;2.718;2022-08-19T09:37:00;6.78;;;3.15;;
23404;SDS011;11875;49.356;2.718;2022-08-19T09:39:27;5.10;;;3.40;;
23404;SDS011;11875;49.356;2.718;2022-08-19T09:41:55;5.68;;;3.10;;
23404;SDS011;11875;49.356;2.718;2022-08-19T09:44:21;6.53;;;3.58;;
23404;SDS011;11875;49.356;2.718;2022-08-19T09:46:47;4.40;;;3.03;;
23404;SDS011;11875;49.356;2.718;2022-08-19T09:49:13;7.07;;;3.40;;
23404;SDS011;11875;49.356;2.718;2022-08-19T09:51:39;7.15;;;4.05;;
23404;SDS011;11875;49.356;2.718;2022-08-19T09:54:05;5.10;;;3.33;;
23404;SDS011;11875;49.356;2.718;2022-08-19T09:56:31;4.50;;;3.10;;
23404;SDS011;11875;49.356;2.718;2022-08-19T09:58:58;6.53;;;3.10;;
23404;SDS011;11875;49.356;2.718;2022-08-19T10:01:25;7.95;;;3.97;;
23404;SDS011;11875;49.356;2.718;2022-08-19T10:03:54;4.32;;;3.78;;
23404;SDS011;11875;49.356;2.718;2022-08-19T10:06:21;4.25;;;3.80;;
23404;SDS011;11875;49.356;2.718;2022-08-19T10:08:51;6.57;;;4.38;;
23404;SDS011;11875;49.356;2.718;2022-08-19T10:11:18;4.95;;;3.40;;
23404;SDS011;11875;49.356;2.718;2022-08-19T10:13:45;5.35;;;4.00;;
23404;SDS011;11875;49.356;2.718;2022-08-19T10:16:14;4.95;;;4.15;;
23404;SDS011;11875;49.356;2.718;2022-08-19T10:18:44;4.65;;;3.40;;
23404;SDS011;11875;49.356;2.718;2022-08-19T10:21:11;5.35;;;3.42;;
23404;SDS011;11875;49.356;2.718;2022-08-19T10:23:38;6.75;;;3.65;;
23404;SDS011;11875;49.356;2.718;2022-08-19T10:26:13;4.30;;;3.78;;
23404;SDS011;11875;49.356;2.718;2022-08-19T10:28:40;5.95;;;3.50;;
23404;SDS011;11875;49.356;2.718;2022-08-19T10:31:07;4.80;;;4.00;;
23404;SDS011;11875;49.356;2.718;2022-08-19T10:33:35;5.50;;;3.50;;
23404;SDS011;11875;49.356;2.718;2022-08-19T10:36:06;5.05;;;3.50;;
23404;SDS011;11875;49.356;2.718;2022-08-19T10:38:34;19.83;;;13.05;;
23404;SDS011;11875;49.356;2.718;2022-08-19T10:41:08;4.53;;;3.50;;
23404;SDS011;11875;49.356;2.718;2022-08-19T10:43:38;7.18;;;3.67;;
23404;SDS011;11875;49.356;2.718;2022-08-19T10:46:06;5.72;;;3.65;;
23404;SDS011;11875;49.356;2.718;2022-08-19T10:48:35;4.78;;;3.90;;
23404;SDS011;11875;49.356;2.718;2022-08-19T10:51:01;6.72;;;3.95;;
23404;SDS011;11875;49.356;2.718;2022-08-19T10:53:47;4.38;;;3.30;;
23404;SDS011;11875;49.356;2.718;2022-08-19T10:56:12;3.40;;;2.90;;
23404;SDS011;11875;49.356;2.718;2022-08-19T10:58:56;3.42;;;3.08;;
23404;SDS011;11875;49.356;2.718;2022-08-19T11:01:23;6.15;;;3.03;;
23404;SDS011;11875;49.356;2.718;2022-08-19T11:03:50;4.05;;;3.15;;
23404;SDS011;11875;49.356;2.718;2022-08-19T11:06:16;4.35;;;2.80;;
23404;SDS011;11875;49.356;2.718;2022-08-19T11:08:41;4.47;;;2.35;;
23404;SDS011;11875;49.356;2.718;2022-08-19T11:11:10;3.05;;;2.30;;
23404;SDS011;11875;49.356;2.718;2022-08-19T11:13:37;3.10;;;2.28;;
23404;SDS011;11875;49.356;2.718;2022-08-19T11:16:12;4.75;;;2.33;;
23404;SDS011;11875;49.356;2.718;2022-08-19T11:18:42;13.75;;;3.13;;
23404;SDS011;11875;49.356;2.718;2022-08-19T11:21:11;3.50;;;2.17;;
23404;SDS011;11875;49.356;2.718;2022-08-19T11:23:39;2.20;;;1.83;;
23404;SDS011;11875;49.356;2.718;2022-08-19T11:26:05;1.90;;;1.70;;
23404;SDS011;11875;49.356;2.718;2022-08-19T11:28:31;3.60;;;1.75;;
23404;SDS011;11875;49.356;2.718;2022-08-19T11:30:57;2.70;;;1.88;;
23404;SDS011;11875;49.356;2.718;2022-08-19T11:33:22;4.68;;;2.08;;
23404;SDS011;11875;49.356;2.718;2022-08-19T11:35:48;2.00;;;1.70;;
23404;SDS011;11875;49.356;2.718;2022-08-19T11:38:14;3.38;;;1.98;;
23404;SDS011;11875;49.356;2.718;2022-08-19T11:40:40;1.67;;;1.55;;
23404;SDS011;11875;49.356;2.718;2022-08-19T11:43:07;2.47;;;1.83;;
23404;SDS011;11875;49.356;2.718;2022-08-19T11:45:34;2.63;;;1.50;;
23404;SDS011;11875;49.356;2.718;2022-08-19T11:48:00;2.13;;;1.48;;
23404;SDS011;11875;49.356;2.718;2022-08-19T11:50:26;4.47;;;1.80;;
23404;SDS011;11875;49.356;2.718;2022-08-19T11:52:53;2.10;;;1.35;;
23404;SDS011;11875;49.356;2.718;2022-08-19T11:55:20;2.45;;;1.48;;
23404;SDS011;11875;49.356;2.718;2022-08-19T11:57:46;3.45;;;1.35;;
23404;SDS011;11875;49.356;2.718;2022-08-19T12:00:12;2.75;;;1.30;;
23404;SDS011;11875;49.356;2.718;2022-08-19T12:02:39;4.90;;;1.30;;
23404;SDS011;11875;49.356;2.718;2022-08-19T12:05:05;2.60;;;1.15;;
23404;SDS011;11875;49.356;2.718;2022-08-19T12:07:31;6.03;;;1.40;;
23404;SDS011;11875;49.356;2.718;2022-08-19T12:09:58;2.90;;;1.55;;
23404;SDS011;11875;49.356;2.718;2022-08-19T12:12:24;2.50;;;1.77;;
23404;SDS011;11875;49.356;2.718;2022-08-19T12:14:51;11.85;;;1.90;;
23404;SDS011;11875;49.356;2.718;2022-08-19T12:17:22;1.67;;;1.30;;
23404;SDS011;11875;49.356;2.718;2022-08-19T12:19:48;2.70;;;1.40;;
23404;SDS011;11875;49.356;2.718;2022-08-19T12:22:14;2.92;;;1.05;;
23404;SDS011;11875;49.356;2.718;2022-08-19T12:24:39;2.00;;;1.20;;
23404;SDS011;11875;49.356;2.718;2022-08-19T12:27:05;3.25;;;1.20;;
23404;SDS011;11875;49.356;2.718;2022-08-19T12:29:31;3.85;;;1.25;;
23404;SDS011;11875;49.356;2.718;2022-08-19T12:31:57;1.65;;;1.40;;
23404;SDS011;11875;49.356;2.718;2022-08-19T12:34:26;5.35;;;1.30;;
23404;SDS011;11875;49.356;2.718;2022-08-19T12:37:00;3.92;;;1.90;;
23404;SDS011;11875;49.356;2.718;2022-08-19T12:39:27;3.10;;;1.30;;
23404;SDS011;11875;49.356;2.718;2022-08-19T12:41:53;2.97;;;1.40;;
23404;SDS011;11875;49.356;2.718;2022-08-19T12:44:19;1.55;;;1.30;;
23404;SDS011;11875;49.356;2.718;2022-08-19T12:46:44;3.33;;;1.30;;
23404;SDS011;11875;49.356;2.718;2022-08-19T12:49:11;2.67;;;1.27;;
23404;SDS011;11875;49.356;2.718;2022-08-19T12:51:37;2.53;;;1.38;;
23404;SDS011;11875;49.356;2.718;2022-08-19T12:54:02;1.92;;;1.15;;
23404;SDS011;11875;49.356;2.718;2022-08-19T12:56:29;2.63;;;1.40;;
23404;SDS011;11875;49.356;2.718;2022-08-19T12:58:56;1.90;;;1.33;;
23404;SDS011;11875;49.356;2.718;2022-08-19T13:01:21;2.45;;;1.10;;
23404;SDS011;11875;49.356;2.718;2022-08-19T13:03:47;5.55;;;1.52;;
23404;SDS011;11875;49.356;2.718;2022-08-19T13:06:13;2.63;;;1.35;;
23404;SDS011;11875;49.356;2.718;2022-08-19T13:08:39;1.95;;;1.52;;
23404;SDS011;11875;49.356;2.718;2022-08-19T13:11:09;2.97;;;1.25;;
23404;SDS011;11875;49.356;2.718;2022-08-19T13:13:41;2.55;;;1.50;;
23404;SDS011;11875;49.356;2.718;2022-08-19T13:16:09;1.77;;;1.50;;
23404;SDS011;11875;49.356;2.718;2022-08-19T13:18:36;1.50;;;1.10;;
23404;SDS011;11875;49.356;2.718;2022-08-19T13:21:05;2.83;;;1.30;;
23404;SDS011;11875;49.356;2.718;2022-08-19T13:23:34;3.78;;;1.20;;
23404;SDS011;11875;49.356;2.718;2022-08-19T13:26:04;2.75;;;1.40;;
23404;SDS011;11875;49.356;2.718;2022-08-19T13:28:31;2.47;;;1.50;;
23404;SDS011;11875;49.356;2.718;2022-08-19T13:31:18;2.30;;;1.17;;
23404;SDS011;11875;49.356;2.718;2022-08-19T13:34:03;1.77;;;1.13;;
23404;SDS011;11875;49.356;2.718;2022-08-19T13:36:31;2.33;;;1.15;;
23404;SDS011;11875;49.356;2.718;2022-08-19T13:38:57;1.05;;;0.93;;
23404;SDS011;11875;49.356;2.718;2022-08-19T13:41:23;2.15;;;1.10;;
23404;SDS011;11875;49.356;2.718;2022-08-19T13:43:50;4.43;;;1.40;;
23404;SDS011;11875;49.356;2.718;2022-08-19T13:46:15;1.38;;;1.25;;
23404;SDS011;11875;49.356;2.718;2022-08-19T13:48:41;4.68;;;1.27;;
23404;SDS011;11875;49.356;2.718;2022-08-19T13:51:07;3.55;;;1.20;;
23404;SDS011;11875;49.356;2.718;2022-08-19T13:53:35;3.78;;;1.33;;
23404;SDS011;11875;49.356;2.718;2022-08-19T13:56:07;2.10;;;1.20;;
23404;SDS011;11875;49.356;2.718;2022-08-19T13:58:35;2.50;;;1.30;;
23404;SDS011;11875;49.356;2.718;2022-08-19T14:01:02;3.47;;;1.40;;
23404;SDS011;11875;49.356;2.718;2022-08-19T14:03:29;5.07;;;1.60;;
23404;SDS011;11875;49.356;2.718;2022-08-19T14:05:55;2.65;;;1.25;;
23404;SDS011;11875;49.356;2.718;2022-08-19T14:08:21;3.53;;;1.52;;
23404;SDS011;11875;49.356;2.718;2022-08-19T14:10:47;1.60;;;1.40;;
23404;SDS011;11875;49.356;2.718;2022-08-19T14:13:17;1.33;;;1.13;;
23404;SDS011;11875;49.356;2.718;2022-08-19T14:15:45;1.98;;;1.17;;
23404;SDS011;11875;49.356;2.718;2022-08-19T14:18:11;1.67;;;1.15;;
23404;SDS011;11875;49.356;2.718;2022-08-19T14:20:37;3.97;;;1.30;;
23404;SDS011;11875;49.356;2.718;2022-08-19T14:23:02;2.22;;;1.35;;
23404;SDS011;11875;49.356;2.718;2022-08-19T14:25:31;3.13;;;1.30;;
23404;SDS011;11875;49.356;2.718;2022-08-19T14:27:57;1.40;;;1.20;;
23404;SDS011;11875;49.356;2.718;2022-08-19T14:30:28;2.88;;;1.15;;
23404;SDS011;11875;49.356;2.718;2022-08-19T14:32:56;1.52;;;1.08;;
23404;SDS011;11875;49.356;2.718;2022-08-19T14:35:23;3.97;;;1.40;;
23404;SDS011;11875;49.356;2.718;2022-08-19T14:37:51;1.90;;;1.23;;
23404;SDS011;11875;49.356;2.718;2022-08-19T14:40:20;4.68;;;1.08;;
23404;SDS011;11875;49.356;2.718;2022-08-19T14:43:02;3.40;;;1.30;;
23404;SDS011;11875;49.356;2.718;2022-08-19T14:45:30;5.22;;;1.80;;
23404;SDS011;11875;49.356;2.718;2022-08-19T14:47:56;2.33;;;1.30;;
23404;SDS011;11875;49.356;2.718;2022-08-19T14:50:24;1.90;;;1.17;;